createdAt,value
2023-02-27T00:01:46.553Z,98442.75
2023-02-27T00:04:14.965Z,98456.94
2023-02-27T00:06:43.127Z,98449.19
2023-02-27T00:09:11.279Z,98451.84
2023-02-27T00:11:41.178Z,98452.50
2023-02-27T00:14:10.814Z,98454.81
2023-02-27T00:16:39.243Z,98456.78
2023-02-27T00:19:07.516Z,98451.00
2023-02-27T00:21:36.899Z,98441.44
2023-02-27T00:24:05.787Z,98452.81
2023-02-27T00:26:33.933Z,98449.84
2023-02-27T00:29:01.986Z,98450.69
2023-02-27T00:31:31.584Z,98455.28
2023-02-27T00:33:59.910Z,98464.19
2023-02-27T00:36:28.173Z,98451.50
2023-02-27T00:38:56.402Z,98463.03
2023-02-27T00:41:24.859Z,98459.56
2023-02-27T00:43:54.342Z,98453.63
2023-02-27T00:46:22.484Z,98447.03
2023-02-27T00:48:52.076Z,98449.19
2023-02-27T00:51:21.999Z,98452.50
2023-02-27T00:53:50.181Z,98441.28
2023-02-27T00:56:18.292Z,98448.72
2023-02-27T00:58:46.230Z,98452.00
2023-02-27T01:01:15.480Z,98452.81
2023-02-27T01:03:44.896Z,98452.00
2023-02-27T01:06:14.308Z,98455.81
2023-02-27T01:08:42.513Z,98461.88
2023-02-27T01:11:10.727Z,98456.59
2023-02-27T01:13:38.727Z,98454.81
2023-02-27T01:16:08.717Z,98453.97
2023-02-27T01:18:36.915Z,98450.03
2023-02-27T01:21:05.956Z,98455.59
2023-02-27T01:23:35.484Z,98454.31
2023-02-27T01:26:03.575Z,98453.31
2023-02-27T01:28:31.654Z,98452.16
2023-02-27T01:30:59.726Z,98450.50
2023-02-27T01:33:28.112Z,98453.47
2023-02-27T01:35:56.292Z,98452.34
2023-02-27T01:38:24.626Z,98449.69
2023-02-27T01:40:54.871Z,98455.13
2023-02-27T01:43:23.677Z,98452.81
2023-02-27T01:45:53.050Z,98453.31
2023-02-27T01:48:25.971Z,98448.84
2023-02-27T01:50:57.722Z,98447.69
2023-02-27T01:53:27.862Z,98449.84
2023-02-27T01:56:01.699Z,98446.41
2023-02-27T01:58:29.926Z,98444.41
2023-02-27T02:00:58.943Z,98438.97
2023-02-27T02:03:34.435Z,98443.91
2023-02-27T02:06:06.182Z,98440.94
2023-02-27T02:08:38.019Z,98436.81
2023-02-27T02:11:09.181Z,98440.09
2023-02-27T02:13:39.138Z,98436.97
2023-02-27T02:16:24.010Z,98436.16
2023-02-27T02:19:01.427Z,98432.19
2023-02-27T02:21:51.159Z,98432.88
2023-02-27T02:24:56.517Z,98443.41
2023-02-27T02:27:43.971Z,98439.13
2023-02-27T02:30:39.870Z,98445.38
2023-02-27T02:33:44.565Z,98438.13
2023-02-27T02:36:47.135Z,98431.88
2023-02-27T02:39:33.631Z,98431.53
2023-02-27T02:42:06.329Z,98430.38
2023-02-27T02:44:48.906Z,98436.00
2023-02-27T02:47:26.763Z,98450.16
2023-02-27T02:49:59.165Z,98434.66
2023-02-27T02:52:39.724Z,98432.00
2023-02-27T02:55:15.153Z,98438.13
2023-02-27T02:57:49.477Z,98440.78
2023-02-27T03:00:21.668Z,98435.66
2023-02-27T03:02:56.529Z,98442.75
2023-02-27T03:05:29.492Z,98447.19
2023-02-27T03:08:02.286Z,98451.66
2023-02-27T03:10:36.327Z,98441.41
2023-02-27T03:13:09.552Z,98433.97
2023-02-27T03:15:46.292Z,98451.16
2023-02-27T03:18:20.871Z,98447.81
2023-02-27T03:20:54.101Z,98448.66
2023-02-27T03:23:29.543Z,98448.66
2023-02-27T03:25:59.792Z,98449.31
2023-02-27T03:28:33.492Z,98456.09
2023-02-27T03:31:10.154Z,98454.09
2023-02-27T03:33:47.607Z,98447.31
2023-02-27T03:36:27.688Z,98455.91
2023-02-27T03:39:02.400Z,98467.09
2023-02-27T03:41:35.949Z,98450.28
2023-02-27T03:44:11.543Z,98457.84
2023-02-27T03:46:39.916Z,98463.63
2023-02-27T03:49:08.675Z,98460.97
2023-02-27T03:51:37.740Z,98468.25
2023-02-27T03:54:11.008Z,98473.69
2023-02-27T03:56:46.046Z,98462.13
2023-02-27T03:59:16.375Z,98471.88
2023-02-27T04:01:45.468Z,98476.31
2023-02-27T04:04:15.777Z,98474.69
2023-02-27T04:07:05.046Z,98472.00
2023-02-27T04:09:50.550Z,98473.16
2023-02-27T04:12:54.316Z,98476.31
2023-02-27T04:15:30.291Z,98480.44
2023-02-27T04:18:07.275Z,98480.59
2023-02-27T04:20:44.108Z,98476.78
2023-02-27T04:23:19.045Z,98476.59
2023-02-27T04:26:00.933Z,98476.94
2023-02-27T04:28:40.767Z,98472.00
2023-02-27T04:31:18.334Z,98475.31
2023-02-27T04:33:52.008Z,98475.78
2023-02-27T04:36:26.397Z,98480.72
2023-02-27T04:39:04.911Z,98467.53
2023-02-27T04:41:39.641Z,98476.91
2023-02-27T04:44:12.032Z,98472.97
2023-02-27T04:46:43.680Z,98476.25
2023-02-27T04:49:17.184Z,98466.63
2023-02-27T04:51:52.016Z,98474.91
2023-02-27T04:54:26.537Z,98467.97
2023-02-27T04:56:59.152Z,98471.91
2023-02-27T04:59:32.273Z,98473.44
2023-02-27T05:02:04.046Z,98469.97
2023-02-27T05:04:37.064Z,98469.97
2023-02-27T05:07:09.524Z,98482.69
2023-02-27T05:09:43.814Z,98471.78
2023-02-27T05:12:17.848Z,98481.97
2023-02-27T05:14:52.166Z,98482.31
2023-02-27T05:17:24.062Z,98487.56
2023-02-27T05:19:52.447Z,98484.94
2023-02-27T05:22:28.885Z,98487.06
2023-02-27T05:25:04.176Z,98489.22
2023-02-27T05:27:37.775Z,98497.44
2023-02-27T05:30:17.281Z,98508.34
2023-02-27T05:32:52.870Z,98504.88
2023-02-27T05:35:28.918Z,98502.81
2023-02-27T05:38:05.802Z,98510.97
2023-02-27T05:40:38.320Z,98508.34
2023-02-27T05:43:11.897Z,98509.78
2023-02-27T05:45:44.895Z,98515.69
2023-02-27T05:48:19.439Z,98515.59
2023-02-27T05:50:51.950Z,98516.66
2023-02-27T05:53:23.132Z,98519.66
2023-02-27T05:55:54.607Z,98514.72
2023-02-27T05:58:28.004Z,98502.03
2023-02-27T06:01:00.018Z,98520.19
2023-02-27T06:03:29.589Z,98529.84
2023-02-27T06:06:00.472Z,98521.78
2023-02-27T06:08:29.132Z,98523.75
2023-02-27T06:10:57.408Z,98526.91
2023-02-27T06:13:27.172Z,98524.41
2023-02-27T06:15:55.157Z,98520.81
2023-02-27T06:18:24.479Z,98515.22
2023-02-27T06:20:53.226Z,98527.63
2023-02-27T06:23:21.315Z,98526.44
2023-02-27T06:25:50.688Z,98522.66
2023-02-27T06:28:18.673Z,98523.66
2023-02-27T06:30:46.754Z,98530.72
2023-02-27T06:33:14.919Z,98542.94
2023-02-27T06:35:45.140Z,98538.81
2023-02-27T06:38:13.212Z,98542.25
2023-02-27T06:40:41.130Z,98538.13
2023-02-27T06:43:09.561Z,98542.75
2023-02-27T06:45:38.535Z,98540.94
2023-02-27T06:48:07.212Z,98544.59
2023-02-27T06:50:35.273Z,98538.34
2023-02-27T06:53:04.807Z,98549.69
2023-02-27T06:55:32.998Z,98553.31
2023-02-27T06:58:01.474Z,98552.13
2023-02-27T07:00:30.170Z,98552.69
2023-02-27T07:02:58.184Z,98548.25
2023-02-27T07:05:26.199Z,98550.78
2023-02-27T07:07:54.187Z,98554.72
2023-02-27T07:10:27.140Z,98553.56
2023-02-27T07:12:55.643Z,98568.41
2023-02-27T07:15:23.900Z,98573.06
2023-02-27T07:17:51.897Z,98573.06
2023-02-27T07:20:19.836Z,98572.91
2023-02-27T07:22:47.787Z,98566.16
2023-02-27T07:25:15.844Z,98567.97
2023-02-27T07:27:46.307Z,98575.44
2023-02-27T07:30:14.978Z,98573.97
2023-02-27T07:32:42.912Z,98567.06
2023-02-27T07:35:11.968Z,98571.72
2023-02-27T07:37:40.400Z,98570.59
2023-02-27T07:40:10.195Z,98581.16
2023-02-27T07:42:38.163Z,98589.09
2023-02-27T07:45:08.936Z,98585.50
2023-02-27T07:47:37.574Z,98574.28
2023-02-27T07:50:06.315Z,98576.63
2023-02-27T07:52:34.321Z,98566.91
2023-02-27T07:55:02.297Z,98579.47
2023-02-27T07:57:30.448Z,98580.78
2023-02-27T07:59:58.450Z,98572.19
2023-02-27T08:02:28.027Z,98571.53
2023-02-27T08:04:55.991Z,98577.13
2023-02-27T08:07:23.949Z,98575.97
2023-02-27T08:09:51.968Z,98576.31
2023-02-27T08:12:19.900Z,98573.81
2023-02-27T08:14:47.837Z,98572.66
2023-02-27T08:17:16.322Z,98571.16
2023-02-27T08:19:45.789Z,98571.78
2023-02-27T08:22:14.004Z,98569.09
2023-02-27T08:24:42.351Z,98569.72
2023-02-27T08:27:10.289Z,98570.19
2023-02-27T08:29:38.557Z,98571.47
2023-02-27T08:32:06.737Z,98574.91
2023-02-27T08:34:34.711Z,98578.53
2023-02-27T08:37:04.433Z,98582.63
2023-02-27T08:39:32.616Z,98584.06
2023-02-27T08:42:00.894Z,98585.72
2023-02-27T08:44:28.866Z,98581.66
2023-02-27T08:46:57.172Z,98588.44
2023-02-27T08:49:25.868Z,98587.56
2023-02-27T08:51:54.182Z,98587.34
2023-02-27T08:54:23.477Z,98586.09
2023-02-27T08:56:51.395Z,98591.28
2023-02-27T08:59:19.628Z,98595.88
2023-02-27T09:01:47.593Z,98593.88
2023-02-27T09:04:16.250Z,98601.59
2023-02-27T09:06:44.200Z,98603.97
2023-02-27T09:09:12.518Z,98612.59
2023-02-27T09:11:42.207Z,98598.38
2023-02-27T09:14:10.569Z,98592.06
2023-02-27T09:16:38.652Z,98594.38
2023-02-27T09:19:07.051Z,98598.13
2023-02-27T09:21:35.214Z,98597.06
2023-02-27T09:24:13.704Z,98593.59
2023-02-27T09:26:48.801Z,98595.47
2023-02-27T09:29:17.611Z,98602.38
2023-02-27T09:31:46.184Z,98597.22
2023-02-27T09:34:14.240Z,98596.31
2023-02-27T09:36:42.440Z,98602.06
2023-02-27T09:39:10.936Z,98600.41
2023-02-27T09:41:49.382Z,98599.50
2023-02-27T09:44:39.753Z,98604.59
2023-02-27T09:47:18.082Z,98603.78
2023-02-27T09:49:57.412Z,98597.97
2023-02-27T09:52:25.368Z,98611.66
2023-02-27T09:54:55.203Z,98609.56
2023-02-27T09:57:34.931Z,98613.59
2023-02-27T10:00:15.170Z,98598.53
2023-02-27T10:02:56.025Z,98608.34
2023-02-27T10:05:32.173Z,98608.91
2023-02-27T10:08:10.258Z,98601.84
2023-02-27T10:10:45.437Z,98602.97
2023-02-27T10:13:31.922Z,98616.25
2023-02-27T10:16:02.273Z,98608.06
2023-02-27T10:18:32.990Z,98626.56
2023-02-27T10:21:04.485Z,98617.13
2023-02-27T10:23:41.696Z,98618.47
2023-02-27T10:26:20.063Z,98620.56
2023-02-27T10:28:48.230Z,98620.25
2023-02-27T10:31:21.812Z,98623.31
2023-02-27T10:33:49.838Z,98616.97
2023-02-27T10:36:33.140Z,98619.88
2023-02-27T10:39:06.164Z,98618.09
2023-02-27T10:41:35.981Z,98620.09
2023-02-27T10:44:05.012Z,98633.25
2023-02-27T10:46:38.332Z,98626.41
2023-02-27T10:49:18.708Z,98617.84
2023-02-27T10:51:48.280Z,98620.16
2023-02-27T10:54:23.626Z,98628.69
2023-02-27T10:56:53.613Z,98624.13
2023-02-27T10:59:24.784Z,98620.78
2023-02-27T11:01:56.542Z,98625.59
2023-02-27T11:04:27.931Z,98627.31
2023-02-27T11:06:56.651Z,98629.56
2023-02-27T11:09:27.577Z,98619.59
2023-02-27T11:11:57.146Z,98629.56
2023-02-27T11:14:29.032Z,98610.06
2023-02-27T11:17:00.632Z,98623.72
2023-02-27T11:19:34.944Z,98615.34
2023-02-27T11:22:05.853Z,98610.09
2023-02-27T11:24:34.813Z,98604.59
2023-02-27T11:27:06.454Z,98611.81
2023-02-27T11:29:36.073Z,98616.88
2023-02-27T11:32:15.167Z,98610.78
2023-02-27T11:34:50.836Z,98611.38
2023-02-27T11:37:26.736Z,98601.56
2023-02-27T11:40:04.812Z,98595.63
2023-02-27T11:42:35.640Z,98597.25
2023-02-27T11:45:06.977Z,98600.75
2023-02-27T11:47:39.717Z,98592.97
2023-02-27T11:50:41.024Z,98594.00
2023-02-27T11:53:27.162Z,98595.22
2023-02-27T11:55:59.515Z,98607.91
2023-02-27T11:58:33.837Z,98596.53
2023-02-27T12:01:06.856Z,98600.81
2023-02-27T12:03:47.504Z,98602.09
2023-02-27T12:06:20.705Z,98603.59
2023-02-27T12:08:54.383Z,98604.22
2023-02-27T12:11:28.318Z,98597.00
2023-02-27T12:14:03.084Z,98599.31
2023-02-27T12:16:39.102Z,98608.75
2023-02-27T12:19:17.538Z,98594.16
2023-02-27T12:21:49.777Z,98601.69
2023-02-27T12:24:23.394Z,98585.75
2023-02-27T12:26:57.366Z,98581.44
2023-02-27T12:29:31.924Z,98586.56
2023-02-27T12:32:05.296Z,98590.44
2023-02-27T12:34:41.963Z,98582.66
2023-02-27T12:37:13.453Z,98595.03
2023-02-27T12:39:44.076Z,98585.41
2023-02-27T12:42:54.950Z,98588.97
2023-02-27T12:45:54.288Z,98583.28
2023-02-27T12:48:33.820Z,98584.69
2023-02-27T12:51:16.707Z,98583.19
2023-02-27T12:54:02.492Z,98585.03
2023-02-27T12:56:41.248Z,98581.88
2023-02-27T12:59:22.423Z,98587.34
2023-02-27T13:02:00.664Z,98584.00
2023-02-27T13:04:39.063Z,98585.69
2023-02-27T13:07:17.555Z,98593.69
2023-02-27T13:09:50.402Z,98582.03
2023-02-27T13:12:26.069Z,98590.84
2023-02-27T13:14:58.963Z,98586.97
2023-02-27T13:17:32.659Z,98588.25
2023-02-27T13:20:06.326Z,98586.56
2023-02-27T13:22:42.576Z,98595.69
2023-02-27T13:25:15.835Z,98580.06
2023-02-27T13:27:48.025Z,98576.53
2023-02-27T13:30:23.894Z,98573.13
2023-02-27T13:33:03.944Z,98558.00
2023-02-27T13:35:44.555Z,98587.97
2023-02-27T13:38:43.729Z,98586.47
2023-02-27T13:41:38.524Z,98587.03
2023-02-27T13:44:50.132Z,98578.63
2023-02-27T13:47:41.047Z,98572.53
2023-02-27T13:50:46.603Z,98578.88
2023-02-27T13:53:19.502Z,98578.59
2023-02-27T13:55:49.000Z,98565.72
2023-02-27T13:58:20.231Z,98581.00
2023-02-27T14:01:01.027Z,98582.94
2023-02-27T14:03:32.290Z,98573.84
2023-02-27T14:06:06.907Z,98593.97
2023-02-27T14:08:47.963Z,98590.97
2023-02-27T14:11:23.301Z,98588.16
2023-02-27T14:14:05.820Z,98593.59
2023-02-27T14:17:00.120Z,98601.69
2023-02-27T14:19:59.520Z,98599.00
2023-02-27T14:22:40.714Z,98589.75
2023-02-27T14:25:31.998Z,98606.56
2023-02-27T14:28:03.430Z,98605.50
2023-02-27T14:30:35.087Z,98599.75
2023-02-27T14:33:12.957Z,98595.72
2023-02-27T14:35:45.500Z,98596.88
2023-02-27T14:38:18.402Z,98594.91
2023-02-27T14:40:58.106Z,98597.66
2023-02-27T14:43:36.615Z,98607.09
2023-02-27T14:46:14.049Z,98600.47
2023-02-27T14:48:42.149Z,98606.56
2023-02-27T14:51:10.012Z,98603.38
2023-02-27T14:53:38.217Z,98611.09
2023-02-27T14:56:06.604Z,98609.19
2023-02-27T14:58:35.897Z,98609.81
2023-02-27T15:01:08.005Z,98610.72
2023-02-27T15:03:42.181Z,98614.34
2023-02-27T15:06:18.296Z,98618.19
2023-02-27T15:08:49.731Z,98626.38
2023-02-27T15:11:19.727Z,98636.47
2023-02-27T15:13:52.139Z,98626.22
2023-02-27T15:16:23.046Z,98627.16
2023-02-27T15:18:52.816Z,98635.97
2023-02-27T15:21:22.675Z,98636.34
2023-02-27T15:23:57.721Z,98637.66
2023-02-27T15:26:27.412Z,98631.38
2023-02-27T15:28:59.884Z,98643.47
2023-02-27T15:31:31.515Z,98649.06
2023-02-27T15:34:01.473Z,98642.38
2023-02-27T15:36:33.170Z,98653.19
2023-02-27T15:39:15.458Z,98653.75
2023-02-27T15:41:45.814Z,98641.47
2023-02-27T15:44:17.004Z,98647.50
2023-02-27T15:46:46.569Z,98639.00
2023-02-27T15:49:18.929Z,98649.44
2023-02-27T15:51:56.510Z,98641.75
2023-02-27T15:54:24.692Z,98649.53
2023-02-27T15:56:53.674Z,98650.34
2023-02-27T15:59:23.103Z,98665.09
2023-02-27T16:01:51.169Z,98660.78
2023-02-27T16:04:25.388Z,98662.88
2023-02-27T16:07:03.017Z,98662.16
2023-02-27T16:09:33.820Z,98660.22
2023-02-27T16:12:24.194Z,98666.81
2023-02-27T16:14:54.741Z,98677.06
2023-02-27T16:17:30.838Z,98684.31
2023-02-27T16:20:02.062Z,98683.22
2023-02-27T16:22:30.796Z,98689.63
2023-02-27T16:25:09.703Z,98690.53
2023-02-27T16:27:37.921Z,98698.22
2023-02-27T16:30:12.986Z,98703.81
2023-02-27T16:32:44.036Z,98701.25
2023-02-27T16:35:19.282Z,98704.47
2023-02-27T16:37:48.132Z,98702.06
2023-02-27T16:40:18.183Z,98717.47
2023-02-27T16:42:47.607Z,98715.03
2023-02-27T16:45:19.046Z,98723.41
2023-02-27T16:47:49.991Z,98715.81
2023-02-27T16:50:22.115Z,98722.00
2023-02-27T16:52:50.081Z,98717.69
2023-02-27T16:55:18.460Z,98720.88
2023-02-27T16:57:46.597Z,98726.59
2023-02-27T17:00:20.429Z,98729.31
2023-02-27T17:02:48.430Z,98735.53
2023-02-27T17:05:16.822Z,98736.75
2023-02-27T17:07:45.883Z,98735.28
2023-02-27T17:10:17.930Z,98736.53
2023-02-27T17:12:47.040Z,98738.00
2023-02-27T17:15:16.743Z,98736.06
2023-02-27T17:17:46.502Z,98742.59
2023-02-27T17:20:15.878Z,98741.47
2023-02-27T17:22:45.748Z,98740.53
2023-02-27T17:25:14.841Z,98743.94
2023-02-27T17:27:44.434Z,98729.75
2023-02-27T17:30:14.146Z,98737.22
2023-02-27T17:32:43.843Z,98748.72
2023-02-27T17:35:12.375Z,98751.38
2023-02-27T17:37:40.340Z,98755.22
2023-02-27T17:40:09.841Z,98755.38
2023-02-27T17:42:39.210Z,98754.59
2023-02-27T17:45:09.485Z,98763.78
2023-02-27T17:47:37.564Z,98764.69
2023-02-27T17:50:07.861Z,98776.50
2023-02-27T17:52:36.844Z,98777.63
2023-02-27T17:55:06.990Z,98776.50
2023-02-27T17:57:36.154Z,98773.00
2023-02-27T18:00:05.775Z,98779.50
2023-02-27T18:02:34.130Z,98780.13
2023-02-27T18:05:02.322Z,98786.97
2023-02-27T18:07:32.172Z,98786.84
2023-02-27T18:10:00.254Z,98790.31
2023-02-27T18:12:28.608Z,98788.00
2023-02-27T18:14:57.357Z,98785.34
2023-02-27T18:17:25.787Z,98793.28
2023-02-27T18:19:55.281Z,98795.09
2023-02-27T18:22:24.673Z,98801.06
2023-02-27T18:24:55.709Z,98799.63
2023-02-27T18:27:24.497Z,98795.84
2023-02-27T18:29:52.456Z,98792.72
2023-02-27T18:32:21.250Z,98801.44
2023-02-27T18:34:49.416Z,98796.72
2023-02-27T18:37:17.434Z,98799.88
2023-02-27T18:39:45.806Z,98800.88
2023-02-27T18:42:15.630Z,98804.63
2023-02-27T18:44:43.612Z,98811.47
2023-02-27T18:47:12.160Z,98806.84
2023-02-27T18:49:40.151Z,98808.00
2023-02-27T18:52:08.127Z,98810.34
2023-02-27T18:54:36.239Z,98810.03
2023-02-27T18:57:04.770Z,98813.84
2023-02-27T18:59:34.225Z,98804.41
2023-02-27T19:02:02.243Z,98807.56
2023-02-27T19:04:33.980Z,98809.72
2023-02-27T19:07:02.210Z,98816.91
2023-02-27T19:09:32.811Z,98815.41
2023-02-27T19:12:01.549Z,98804.66
2023-02-27T19:14:29.808Z,98813.81
2023-02-27T19:17:00.589Z,98818.28
2023-02-27T19:19:28.945Z,98823.75
2023-02-27T19:21:57.108Z,98817.28
2023-02-27T19:24:25.445Z,98823.59
2023-02-27T19:26:53.639Z,98820.81
2023-02-27T19:29:22.433Z,98817.66
2023-02-27T19:31:50.482Z,98823.63
2023-02-27T19:34:19.952Z,98820.97
2023-02-27T19:36:48.099Z,98810.56
2023-02-27T19:39:16.012Z,98820.16
2023-02-27T19:41:44.211Z,98814.19
2023-02-27T19:44:12.961Z,98822.47
2023-02-27T19:46:42.280Z,98813.69
2023-02-27T19:49:12.177Z,98809.22
2023-02-27T19:51:41.735Z,98817.00
2023-02-27T19:54:14.697Z,98820.97
2023-02-27T19:56:43.520Z,98813.03
2023-02-27T19:59:12.811Z,98805.94
2023-02-27T20:01:41.566Z,98813.53
2023-02-27T20:04:11.263Z,98809.56
2023-02-27T20:06:44.005Z,98806.91
2023-02-27T20:09:15.374Z,98817.16
2023-02-27T20:11:44.845Z,98807.56
2023-02-27T20:14:14.096Z,98813.22
2023-02-27T20:16:45.653Z,98811.03
2023-02-27T20:19:16.600Z,98808.56
2023-02-27T20:21:47.594Z,98815.34
2023-02-27T20:24:18.839Z,98805.41
2023-02-27T20:26:48.620Z,98807.72
2023-02-27T20:29:19.162Z,98808.06
2023-02-27T20:31:49.454Z,98803.75
2023-02-27T20:34:22.799Z,98800.13
2023-02-27T20:36:53.016Z,98803.25
2023-02-27T20:39:22.716Z,98798.94
2023-02-27T20:41:51.126Z,98796.66
2023-02-27T20:44:19.771Z,98801.44
2023-02-27T20:46:49.400Z,98799.16
2023-02-27T20:49:17.949Z,98787.56
2023-02-27T20:51:46.480Z,98796.31
2023-02-27T20:54:20.789Z,98799.31
2023-02-27T20:56:51.897Z,98792.69
2023-02-27T20:59:23.652Z,98790.03
2023-02-27T21:01:55.398Z,98788.06
2023-02-27T21:04:26.190Z,98783.91
2023-02-27T21:06:55.865Z,98792.69
2023-02-27T21:09:25.217Z,98784.59
2023-02-27T21:11:53.095Z,98797.13
2023-02-27T21:14:24.173Z,98789.88
2023-02-27T21:16:52.381Z,98795.31
2023-02-27T21:19:21.759Z,98785.25
2023-02-27T21:21:49.750Z,98785.41
2023-02-27T21:24:17.827Z,98791.66
2023-02-27T21:26:47.198Z,98788.72
2023-02-27T21:29:17.363Z,98789.38
2023-02-27T21:31:49.242Z,98788.03
2023-02-27T21:34:20.923Z,98787.03
2023-02-27T21:36:49.487Z,98779.09
2023-02-27T21:39:20.254Z,98784.38
2023-02-27T21:41:50.365Z,98773.47
2023-02-27T21:44:20.614Z,98777.44
2023-02-27T21:46:49.333Z,98773.13
2023-02-27T21:49:19.521Z,98771.97
2023-02-27T21:51:48.286Z,98763.38
2023-02-27T21:54:18.155Z,98766.34
2023-02-27T21:56:48.198Z,98763.38
2023-02-27T21:59:19.060Z,98762.53
2023-02-27T22:01:48.407Z,98756.25
2023-02-27T22:04:16.769Z,98753.59
2023-02-27T22:06:45.096Z,98762.53
2023-02-27T22:09:13.338Z,98757.09
2023-02-27T22:11:41.913Z,98751.28
2023-02-27T22:14:10.592Z,98748.47
2023-02-27T22:16:39.987Z,98749.97
2023-02-27T22:19:08.017Z,98752.91
2023-02-27T22:21:37.098Z,98751.75
2023-02-27T22:24:05.896Z,98757.69
2023-02-27T22:26:34.620Z,98751.56
2023-02-27T22:29:03.056Z,98761.47
2023-02-27T22:31:33.323Z,98760.97
2023-02-27T22:34:08.260Z,98762.09
2023-02-27T22:36:37.351Z,98762.63
2023-02-27T22:39:06.505Z,98762.47
2023-02-27T22:41:36.181Z,98746.94
2023-02-27T22:44:05.287Z,98756.50
2023-02-27T22:46:35.025Z,98746.25
2023-02-27T22:49:07.299Z,98753.50
2023-02-27T22:51:35.995Z,98750.53
2023-02-27T22:54:06.687Z,98752.03
2023-02-27T22:56:36.584Z,98743.91
2023-02-27T22:59:05.103Z,98750.53
2023-02-27T23:01:35.053Z,98749.38
2023-02-27T23:04:06.943Z,98744.25
2023-02-27T23:06:37.495Z,98743.28
2023-02-27T23:09:07.243Z,98753.00
2023-02-27T23:11:35.763Z,98740.44
2023-02-27T23:14:03.980Z,98748.03
2023-02-27T23:16:32.281Z,98744.38
2023-02-27T23:19:01.494Z,98743.38
2023-02-27T23:21:34.573Z,98745.00
2023-02-27T23:24:04.713Z,98743.81
2023-02-27T23:26:32.691Z,98745.47
2023-02-27T23:29:00.587Z,98743.03
2023-02-27T23:31:34.167Z,98748.16
2023-02-27T23:34:03.904Z,98744.81
2023-02-27T23:36:34.166Z,98738.03
2023-02-27T23:39:02.961Z,98741.16
2023-02-27T23:41:31.487Z,98743.59
2023-02-27T23:44:01.530Z,98743.59
2023-02-27T23:46:30.563Z,98744.25
2023-02-27T23:48:59.470Z,98742.28
2023-02-27T23:51:30.293Z,98741.25
2023-02-27T23:54:00.447Z,98741.25
2023-02-27T23:56:29.962Z,98741.88
2023-02-27T23:59:00.153Z,98744.38
